createdAt,value
2023-03-03T00:01:30.528Z,22.80
2023-03-03T00:03:57.602Z,23.88
2023-03-03T00:06:24.952Z,22.27
2023-03-03T00:08:52.386Z,22.67
2023-03-03T00:11:19.294Z,23.92
2023-03-03T00:13:56.956Z,24.10
2023-03-03T00:16:26.545Z,22.27
2023-03-03T00:18:53.866Z,23.27
2023-03-03T00:21:41.261Z,23.48
2023-03-03T00:24:37.730Z,23.85
2023-03-03T00:27:29.204Z,21.70
2023-03-03T00:29:58.449Z,22.52
2023-03-03T00:32:59.279Z,24.67
2023-03-03T00:35:38.831Z,23.05
2023-03-03T00:38:18.302Z,23.15
2023-03-03T00:40:46.353Z,22.65
2023-03-03T00:43:24.455Z,23.50
2023-03-03T00:45:55.101Z,22.63
2023-03-03T00:48:24.546Z,23.52
2023-03-03T00:50:56.438Z,23.38
2023-03-03T00:53:25.279Z,23.67
2023-03-03T00:55:53.342Z,22.42
2023-03-03T00:58:21.846Z,23.45
2023-03-03T01:00:50.304Z,23.00
2023-03-03T01:03:19.913Z,23.05
2023-03-03T01:05:47.028Z,24.33
2023-03-03T01:08:32.237Z,24.33
2023-03-03T01:11:03.611Z,24.52
2023-03-03T01:13:37.925Z,23.70
2023-03-03T01:16:05.570Z,23.23
2023-03-03T01:18:32.876Z,27.17
2023-03-03T01:20:59.715Z,22.63
2023-03-03T01:23:26.395Z,24.70
2023-03-03T01:25:56.156Z,24.05
2023-03-03T01:28:22.791Z,24.85
2023-03-03T01:30:49.534Z,26.38
2023-03-03T01:33:16.357Z,25.98
2023-03-03T01:35:47.184Z,23.95
2023-03-03T01:38:15.164Z,24.42
2023-03-03T01:40:42.026Z,26.75
2023-03-03T01:43:08.924Z,25.05
2023-03-03T01:45:47.472Z,26.58
2023-03-03T01:48:29.706Z,24.58
2023-03-03T01:51:03.608Z,25.70
2023-03-03T01:53:45.967Z,26.40
2023-03-03T01:56:14.558Z,26.00
2023-03-03T01:59:01.632Z,24.55
2023-03-03T02:01:29.893Z,25.77
2023-03-03T02:03:57.194Z,25.30
2023-03-03T02:06:29.872Z,24.35
2023-03-03T02:08:59.800Z,24.58
2023-03-03T02:11:27.473Z,26.40
2023-03-03T02:13:54.125Z,25.67
2023-03-03T02:16:29.709Z,26.67
2023-03-03T02:18:56.713Z,27.27
2023-03-03T02:21:30.470Z,26.52
2023-03-03T02:24:08.997Z,25.30
2023-03-03T02:26:51.181Z,26.95
2023-03-03T02:29:17.894Z,25.30
2023-03-03T02:31:44.633Z,26.38
2023-03-03T02:34:11.535Z,25.00
2023-03-03T02:36:39.745Z,24.73
2023-03-03T02:39:24.817Z,25.85
2023-03-03T02:42:04.037Z,26.35
2023-03-03T02:44:46.017Z,25.52
2023-03-03T02:47:12.915Z,27.20
2023-03-03T02:49:39.626Z,25.08
2023-03-03T02:52:12.654Z,27.52
2023-03-03T02:54:39.468Z,38.17
2023-03-03T02:57:25.459Z,32.25
2023-03-03T02:59:52.103Z,28.25
2023-03-03T03:02:19.429Z,28.30
2023-03-03T03:04:58.922Z,28.10
2023-03-03T03:07:25.608Z,28.63
2023-03-03T03:09:52.924Z,28.40
2023-03-03T03:12:22.712Z,27.45
2023-03-03T03:14:49.411Z,28.15
2023-03-03T03:17:16.036Z,27.02
2023-03-03T03:19:45.216Z,27.50
2023-03-03T03:22:19.432Z,26.23
2023-03-03T03:24:56.162Z,26.58
2023-03-03T03:27:26.328Z,26.73
2023-03-03T03:29:55.761Z,26.33
2023-03-03T03:32:22.575Z,26.48
2023-03-03T03:34:49.538Z,26.35
2023-03-03T03:37:16.192Z,26.85
2023-03-03T03:39:43.074Z,26.88
2023-03-03T03:42:27.983Z,25.52
2023-03-03T03:44:54.693Z,26.98
2023-03-03T03:47:21.333Z,26.08
2023-03-03T03:49:47.951Z,27.73
2023-03-03T03:52:14.601Z,28.80
2023-03-03T03:54:46.168Z,28.48
2023-03-03T03:57:16.487Z,27.33
2023-03-03T03:59:43.224Z,28.98
2023-03-03T04:02:09.936Z,27.20
2023-03-03T04:04:42.605Z,27.83
2023-03-03T04:07:11.428Z,26.17
2023-03-03T04:09:38.397Z,26.88
2023-03-03T04:12:21.698Z,27.05
2023-03-03T04:14:48.363Z,27.83
2023-03-03T04:17:19.723Z,28.42
2023-03-03T04:19:46.441Z,30.95
2023-03-03T04:22:15.120Z,30.45
2023-03-03T04:24:53.515Z,27.73
2023-03-03T04:27:20.202Z,27.48
2023-03-03T04:29:47.107Z,27.50
2023-03-03T04:32:13.882Z,28.10
2023-03-03T04:34:40.739Z,28.15
2023-03-03T04:37:20.037Z,30.05
2023-03-03T04:39:46.798Z,27.58
2023-03-03T04:42:13.907Z,27.95
2023-03-03T04:44:58.114Z,26.75
2023-03-03T04:47:24.834Z,29.95
2023-03-03T04:49:51.503Z,30.67
2023-03-03T04:52:18.206Z,29.88
2023-03-03T04:54:44.895Z,31.00
2023-03-03T04:57:21.462Z,30.98
2023-03-03T04:59:48.235Z,32.42
2023-03-03T05:02:15.111Z,30.25
2023-03-03T05:04:59.818Z,28.80
2023-03-03T05:07:26.515Z,29.48
2023-03-03T05:09:56.211Z,27.85
2023-03-03T05:12:23.167Z,29.25
2023-03-03T05:14:49.918Z,27.20
2023-03-03T05:17:17.005Z,29.70
2023-03-03T05:19:43.781Z,29.88
2023-03-03T05:22:10.704Z,31.10
2023-03-03T05:24:37.667Z,30.10
2023-03-03T05:27:04.534Z,28.38
2023-03-03T05:29:33.389Z,29.13
2023-03-03T05:32:00.519Z,28.60
2023-03-03T05:34:27.791Z,29.10
2023-03-03T05:36:54.787Z,29.40
2023-03-03T05:39:21.478Z,27.98
2023-03-03T05:41:48.172Z,29.15
2023-03-03T05:44:14.964Z,30.50
2023-03-03T05:46:42.719Z,27.75
2023-03-03T05:49:09.725Z,28.10
2023-03-03T05:51:36.524Z,30.48
2023-03-03T05:54:03.339Z,30.48
2023-03-03T05:56:30.113Z,29.40
2023-03-03T05:58:56.868Z,29.05
2023-03-03T06:01:23.622Z,30.63
2023-03-03T06:03:50.348Z,28.40
2023-03-03T06:06:19.217Z,29.38
2023-03-03T06:08:46.022Z,30.38
2023-03-03T06:11:13.812Z,30.98
2023-03-03T06:13:42.667Z,31.08
2023-03-03T06:16:09.797Z,30.35
2023-03-03T06:18:36.900Z,30.52
2023-03-03T06:21:22.127Z,31.85
2023-03-03T06:23:48.766Z,31.77
2023-03-03T06:26:15.543Z,29.90
2023-03-03T06:28:56.635Z,28.60
2023-03-03T06:31:23.667Z,32.40
2023-03-03T06:33:51.449Z,29.60
2023-03-03T06:36:19.106Z,30.25
2023-03-03T06:38:45.744Z,30.85
2023-03-03T06:41:19.956Z,28.48
2023-03-03T06:43:46.597Z,29.80
2023-03-03T06:46:13.308Z,29.00
2023-03-03T06:48:45.342Z,30.23
2023-03-03T06:51:35.218Z,28.75
2023-03-03T06:54:31.251Z,27.13
2023-03-03T06:57:23.241Z,26.80
2023-03-03T06:59:53.612Z,20.63
2023-03-03T07:02:49.695Z,27.17
2023-03-03T07:05:26.132Z,32.38
2023-03-03T07:07:54.490Z,29.48
2023-03-03T07:10:45.155Z,30.25
2023-03-03T07:13:33.377Z,30.33
2023-03-03T07:16:09.318Z,28.38
2023-03-03T07:18:45.643Z,24.73
2023-03-03T07:21:22.021Z,26.20
2023-03-03T07:23:55.545Z,27.55
2023-03-03T07:26:28.828Z,27.35
2023-03-03T07:29:34.488Z,25.55
2023-03-03T07:32:02.626Z,27.05
2023-03-03T07:34:44.128Z,29.35
2023-03-03T07:37:25.858Z,29.35
2023-03-03T07:40:22.211Z,26.88
2023-03-03T07:42:49.326Z,27.90
2023-03-03T07:45:30.702Z,25.83
2023-03-03T07:48:49.678Z,27.80
2023-03-03T07:51:27.712Z,25.42
2023-03-03T07:54:15.022Z,24.48
2023-03-03T07:56:42.179Z,25.85
2023-03-03T07:59:24.589Z,25.58
2023-03-03T08:02:00.920Z,28.63
2023-03-03T08:04:39.186Z,28.85
2023-03-03T08:07:16.465Z,24.17
2023-03-03T08:10:00.378Z,23.67
2023-03-03T08:12:32.696Z,24.23
2023-03-03T08:17:43.165Z,21.50
2023-03-03T08:20:39.222Z,24.52
2023-03-03T08:23:05.893Z,23.40
2023-03-03T08:25:32.548Z,24.63
2023-03-03T08:28:10.101Z,23.00
2023-03-03T08:30:37.042Z,24.60
2023-03-03T08:33:04.482Z,22.52
2023-03-03T08:35:39.793Z,27.90
2023-03-03T08:38:07.575Z,25.90
2023-03-03T08:40:34.996Z,23.90
2023-03-03T08:43:01.770Z,21.05
2023-03-03T08:45:31.277Z,22.85
2023-03-03T08:47:59.846Z,23.50
2023-03-03T08:50:27.901Z,21.85
2023-03-03T08:52:55.061Z,22.75
2023-03-03T08:55:23.869Z,21.77
2023-03-03T08:57:53.584Z,22.05
2023-03-03T09:00:31.564Z,23.02
2023-03-03T09:03:01.238Z,23.17
2023-03-03T09:05:37.389Z,23.20
2023-03-03T09:08:04.411Z,24.70
2023-03-03T09:10:32.100Z,20.88
2023-03-03T09:13:14.373Z,23.17
2023-03-03T09:15:47.999Z,22.92
2023-03-03T09:18:16.502Z,25.20
2023-03-03T09:20:49.109Z,25.85
2023-03-03T09:23:28.600Z,23.95
2023-03-03T09:25:55.687Z,22.52
2023-03-03T09:28:28.216Z,24.40
2023-03-03T09:30:59.994Z,26.48
2023-03-03T09:33:26.653Z,26.42
2023-03-03T09:36:00.872Z,22.63
2023-03-03T09:38:27.656Z,22.95
2023-03-03T09:41:03.231Z,23.90
2023-03-03T09:43:56.682Z,22.52
2023-03-03T09:46:38.463Z,23.15
2023-03-03T09:49:45.455Z,26.15
2023-03-03T09:52:56.540Z,23.40
2023-03-03T09:56:10.117Z,22.50
2023-03-03T09:58:48.321Z,21.40
2023-03-03T10:01:39.598Z,22.75
2023-03-03T10:05:03.419Z,23.88
2023-03-03T10:07:47.327Z,21.85
2023-03-03T10:10:53.525Z,21.83
2023-03-03T10:13:38.760Z,24.25
2023-03-03T10:16:36.376Z,23.27
2023-03-03T10:19:32.891Z,24.40
2023-03-03T10:22:17.535Z,22.60
2023-03-03T10:25:16.705Z,23.67
2023-03-03T10:28:20.129Z,23.20
2023-03-03T10:31:10.844Z,23.77
2023-03-03T10:34:02.296Z,24.20
2023-03-03T10:36:37.703Z,24.38
2023-03-03T10:39:10.329Z,21.63
2023-03-03T10:42:22.284Z,21.58
2023-03-03T10:45:04.793Z,20.08
2023-03-03T10:50:38.516Z,20.38
2023-03-03T10:53:34.569Z,20.70
2023-03-03T10:56:29.130Z,20.45
2023-03-03T10:59:19.051Z,21.73
2023-03-03T11:01:46.234Z,20.85
2023-03-03T11:04:29.037Z,20.40
2023-03-03T11:07:10.134Z,21.10
2023-03-03T11:10:02.233Z,21.67
2023-03-03T11:12:50.857Z,21.00
2023-03-03T11:15:26.968Z,21.45
2023-03-03T11:18:13.754Z,22.00
2023-03-03T11:20:59.940Z,22.15
2023-03-03T11:23:32.286Z,21.33
2023-03-03T11:28:38.779Z,21.17
2023-03-03T11:31:22.039Z,21.20
2023-03-03T11:34:10.731Z,21.48
2023-03-03T11:36:43.354Z,20.13
2023-03-03T11:39:14.429Z,21.90
2023-03-03T11:41:56.393Z,20.52
2023-03-03T11:44:32.519Z,23.05
2023-03-03T11:47:18.158Z,19.90
2023-03-03T11:50:03.438Z,21.20
2023-03-03T11:52:47.777Z,20.60
2023-03-03T11:55:22.504Z,23.05
2023-03-03T11:57:57.228Z,21.98
2023-03-03T12:00:45.380Z,21.70
2023-03-03T12:03:36.383Z,21.58
2023-03-03T12:06:27.407Z,26.27
2023-03-03T12:09:14.215Z,22.45
2023-03-03T12:12:13.358Z,21.48
2023-03-03T12:15:04.520Z,21.88
2023-03-03T12:17:59.035Z,20.92
2023-03-03T12:20:39.248Z,21.15
2023-03-03T12:23:24.984Z,21.55
2023-03-03T12:26:14.739Z,22.52
2023-03-03T12:28:52.260Z,22.25
2023-03-03T12:31:44.168Z,21.00
2023-03-03T12:34:43.228Z,21.63
2023-03-03T12:37:27.451Z,21.90
2023-03-03T12:40:10.030Z,20.98
2023-03-03T12:42:54.186Z,19.65
2023-03-03T12:45:33.114Z,22.20
2023-03-03T12:48:40.945Z,21.50
2023-03-03T12:51:56.226Z,21.38
2023-03-03T12:54:44.399Z,21.35
2023-03-03T12:57:18.189Z,21.40
2023-03-03T12:59:55.205Z,20.52
2023-03-03T13:02:46.910Z,22.15
2023-03-03T13:05:34.650Z,20.48
2023-03-03T13:08:21.247Z,21.02
2023-03-03T13:10:48.043Z,20.35
2023-03-03T13:13:41.021Z,20.35
2023-03-03T13:16:24.138Z,21.00
2023-03-03T13:19:21.959Z,20.85
2023-03-03T13:22:17.273Z,21.02
2023-03-03T13:25:28.369Z,20.33
2023-03-03T13:28:14.048Z,22.33
2023-03-03T13:30:56.901Z,20.05
2023-03-03T13:33:34.794Z,21.88
2023-03-03T13:36:08.680Z,20.75
2023-03-03T13:38:47.058Z,20.80
2023-03-03T13:41:42.161Z,21.17
2023-03-03T13:44:24.818Z,20.60
2023-03-03T13:47:13.854Z,22.52
2023-03-03T13:50:04.190Z,20.45
2023-03-03T13:52:36.141Z,21.83
2023-03-03T13:55:16.144Z,21.40
2023-03-03T13:58:01.840Z,21.98
2023-03-03T14:00:53.464Z,21.00
2023-03-03T14:03:55.472Z,21.63
2023-03-03T14:06:30.646Z,22.73
2023-03-03T14:09:43.879Z,23.02
2023-03-03T14:12:21.608Z,22.98
2023-03-03T14:15:17.373Z,23.20
2023-03-03T14:18:38.303Z,21.55
2023-03-03T14:21:18.892Z,22.92
2023-03-03T14:23:57.300Z,22.17
2023-03-03T14:26:24.032Z,22.85
2023-03-03T14:28:53.093Z,23.52
2023-03-03T14:31:26.338Z,22.85
2023-03-03T14:34:21.721Z,23.33
2023-03-03T14:36:50.175Z,21.27
2023-03-03T14:39:34.225Z,22.17
2023-03-03T14:42:05.206Z,23.17
2023-03-03T14:44:38.708Z,25.25
2023-03-03T14:47:17.725Z,23.10
2023-03-03T14:49:44.592Z,22.17
2023-03-03T14:52:17.549Z,24.17
2023-03-03T14:54:53.252Z,23.27
2023-03-03T14:57:41.501Z,23.80
2023-03-03T15:00:27.776Z,22.08
2023-03-03T15:03:23.366Z,23.88
2023-03-03T15:06:03.012Z,23.77
2023-03-03T15:08:35.911Z,22.48
2023-03-03T15:11:17.628Z,23.88
2023-03-03T15:13:49.081Z,23.45
2023-03-03T15:16:35.100Z,25.37
2023-03-03T15:19:33.489Z,23.50
2023-03-03T15:22:37.333Z,23.70
2023-03-03T15:25:24.108Z,23.55
2023-03-03T15:28:08.219Z,24.40
2023-03-03T15:30:52.864Z,24.15
2023-03-03T15:33:30.673Z,24.85
2023-03-03T15:36:28.750Z,24.60
2023-03-03T15:39:16.770Z,23.95
2023-03-03T15:42:04.039Z,23.83
2023-03-03T15:44:52.773Z,22.65
2023-03-03T15:47:49.093Z,23.30
2023-03-03T15:50:21.597Z,23.77
2023-03-03T15:53:21.902Z,23.67
2023-03-03T15:56:13.514Z,23.13
2023-03-03T15:59:07.462Z,23.25
2023-03-03T16:01:39.180Z,23.35
2023-03-03T16:04:15.838Z,23.80
2023-03-03T16:07:13.987Z,23.75
2023-03-03T16:10:05.275Z,23.63
2023-03-03T16:12:53.715Z,23.00
2023-03-03T16:15:50.924Z,22.77
2023-03-03T16:18:37.555Z,24.83
2023-03-03T16:21:29.787Z,24.65
2023-03-03T16:23:59.654Z,25.90
2023-03-03T16:26:52.908Z,24.35
2023-03-03T16:29:38.613Z,28.80
2023-03-03T16:32:32.752Z,23.60
2023-03-03T16:35:17.855Z,24.73
2023-03-03T16:38:01.900Z,26.00
2023-03-03T16:40:50.096Z,22.70
2023-03-03T16:43:40.861Z,23.17
2023-03-03T16:46:16.487Z,23.08
2023-03-03T16:49:02.303Z,23.45
2023-03-03T16:51:43.715Z,24.38
2023-03-03T16:54:27.142Z,24.08
2023-03-03T16:57:00.029Z,23.73
2023-03-03T16:59:38.724Z,23.70
2023-03-03T17:02:24.285Z,24.88
2023-03-03T17:04:51.106Z,23.42
2023-03-03T17:07:39.512Z,23.67
2023-03-03T17:10:26.378Z,25.58
2023-03-03T17:13:15.593Z,24.30
2023-03-03T17:15:48.396Z,24.58
2023-03-03T17:18:28.318Z,26.58
2023-03-03T17:21:00.309Z,25.02
2023-03-03T17:23:57.797Z,25.23
2023-03-03T17:26:44.065Z,24.35
2023-03-03T17:29:13.895Z,25.85
2023-03-03T17:31:47.046Z,25.23
2023-03-03T17:34:31.598Z,25.70
2023-03-03T17:37:37.042Z,24.67
2023-03-03T17:40:15.338Z,24.23
2023-03-03T17:42:54.168Z,25.70
2023-03-03T17:45:22.760Z,26.13
2023-03-03T17:48:05.977Z,26.70
2023-03-03T17:50:47.763Z,27.05
2023-03-03T17:53:42.967Z,26.85
2023-03-03T17:56:22.527Z,27.83
2023-03-03T17:59:22.983Z,25.35
2023-03-03T18:02:05.432Z,25.60
2023-03-03T18:07:56.167Z,26.00
2023-03-03T18:10:43.936Z,27.20
2023-03-03T18:13:44.417Z,25.88
2023-03-03T18:16:36.102Z,28.60
2023-03-03T18:19:17.813Z,29.10
2023-03-03T18:22:10.677Z,30.40
2023-03-03T18:25:01.765Z,31.05
2023-03-03T18:27:31.966Z,29.85
2023-03-03T18:30:18.552Z,31.85
2023-03-03T18:33:08.065Z,29.88
2023-03-03T18:35:38.424Z,29.75
2023-03-03T18:38:29.092Z,29.00
2023-03-03T18:41:04.738Z,29.98
2023-03-03T18:43:59.305Z,29.55
2023-03-03T18:46:26.015Z,28.67
2023-03-03T18:49:06.108Z,31.95
2023-03-03T18:52:13.436Z,33.83
2023-03-03T18:54:41.326Z,31.55
2023-03-03T18:57:17.516Z,34.90
2023-03-03T19:00:15.548Z,33.33
2023-03-03T19:02:58.085Z,34.55
2023-03-03T19:07:58.497Z,31.35
2023-03-03T19:10:50.983Z,29.45
2023-03-03T19:13:26.914Z,31.35
2023-03-03T19:15:56.423Z,30.23
2023-03-03T19:18:26.863Z,28.45
2023-03-03T19:21:05.730Z,27.67
2023-03-03T19:23:51.414Z,27.80
2023-03-03T19:26:30.349Z,27.15
2023-03-03T19:29:21.478Z,26.33
2023-03-03T19:32:09.458Z,27.00
2023-03-03T19:34:59.063Z,28.63
2023-03-03T19:37:58.226Z,28.58
2023-03-03T19:40:38.336Z,29.13
2023-03-03T19:43:42.184Z,31.70
2023-03-03T19:46:33.877Z,31.10
2023-03-03T19:49:27.027Z,30.73
2023-03-03T19:52:21.092Z,31.92
2023-03-03T19:55:18.571Z,27.88
2023-03-03T19:58:01.980Z,32.22
2023-03-03T20:00:42.759Z,29.73
2023-03-03T20:03:31.448Z,30.77
2023-03-03T20:06:01.184Z,24.67
2023-03-03T20:08:41.113Z,26.00
2023-03-03T20:11:17.408Z,26.83
2023-03-03T20:13:56.258Z,25.25
2023-03-03T20:16:23.042Z,23.90
2023-03-03T20:19:20.829Z,25.00
2023-03-03T20:22:24.835Z,24.38
2023-03-03T20:25:21.497Z,24.23
2023-03-03T20:28:07.315Z,24.67
2023-03-03T20:30:55.615Z,25.90
2023-03-03T20:33:43.975Z,24.98
2023-03-03T20:36:19.779Z,23.08
2023-03-03T20:39:02.355Z,25.30
2023-03-03T20:42:11.370Z,21.27
2023-03-03T20:44:44.065Z,21.00
2023-03-03T20:47:20.763Z,21.65
2023-03-03T20:50:15.479Z,22.38
2023-03-03T20:53:09.773Z,22.48
2023-03-03T20:55:57.846Z,22.58
2023-03-03T20:58:43.186Z,23.35
2023-03-03T21:01:17.554Z,21.45
2023-03-03T21:03:45.437Z,22.20
2023-03-03T21:06:18.092Z,23.25
2023-03-03T21:08:53.180Z,24.67
2023-03-03T21:11:32.107Z,24.95
2023-03-03T21:14:00.041Z,27.05
2023-03-03T21:16:26.698Z,23.98
2023-03-03T21:19:00.658Z,25.38
2023-03-03T21:21:35.987Z,24.65
2023-03-03T21:24:03.562Z,25.75
2023-03-03T21:26:48.312Z,24.85
2023-03-03T21:29:21.097Z,24.60
2023-03-03T21:31:55.314Z,25.73
2023-03-03T21:34:35.577Z,24.85
2023-03-03T21:37:15.280Z,25.17
2023-03-03T21:39:43.799Z,21.95
2023-03-03T21:42:21.387Z,22.02
2023-03-03T21:44:49.722Z,24.15
2023-03-03T21:47:28.736Z,23.10
2023-03-03T21:49:55.454Z,24.05
2023-03-03T21:52:22.561Z,41.33
2023-03-03T21:54:55.102Z,36.03
2023-03-03T21:57:22.234Z,31.70
2023-03-03T21:59:48.827Z,32.80
2023-03-03T22:02:15.413Z,30.95
2023-03-03T22:04:42.240Z,27.98
2023-03-03T22:07:09.876Z,21.95
2023-03-03T22:09:37.303Z,23.30
2023-03-03T22:12:05.363Z,23.27
2023-03-03T22:14:32.186Z,25.30
2023-03-03T22:16:59.378Z,25.77
2023-03-03T22:19:26.158Z,35.15
2023-03-03T22:21:52.986Z,29.65
2023-03-03T22:24:19.843Z,24.50
2023-03-03T22:26:46.754Z,22.90
2023-03-03T22:29:16.389Z,21.75
2023-03-03T22:31:43.305Z,22.40
2023-03-03T22:34:10.504Z,23.08
2023-03-03T22:36:37.235Z,22.60
2023-03-03T22:39:04.077Z,23.33
2023-03-03T22:41:31.747Z,22.85
2023-03-03T22:43:58.632Z,22.55
2023-03-03T22:46:25.597Z,23.85
2023-03-03T22:48:52.561Z,21.35
2023-03-03T22:51:22.104Z,21.48
2023-03-03T22:53:48.957Z,21.35
2023-03-03T22:56:15.752Z,21.92
2023-03-03T22:58:42.699Z,24.70
2023-03-03T23:01:09.517Z,27.20
2023-03-03T23:03:37.259Z,23.35
2023-03-03T23:06:04.448Z,20.25
2023-03-03T23:08:31.270Z,22.02
2023-03-03T23:10:58.038Z,24.17
2023-03-03T23:13:30.656Z,24.33
2023-03-03T23:16:00.134Z,22.65
2023-03-03T23:18:28.536Z,26.25
2023-03-03T23:21:00.876Z,25.60
2023-03-03T23:23:27.598Z,29.77
2023-03-03T23:25:54.351Z,31.40
2023-03-03T23:28:21.060Z,27.15
2023-03-03T23:30:47.773Z,25.73
2023-03-03T23:33:17.265Z,29.02
2023-03-03T23:35:45.417Z,24.75
2023-03-03T23:38:23.334Z,23.65
2023-03-03T23:40:50.000Z,22.27
2023-03-03T23:43:16.670Z,22.27
2023-03-03T23:45:43.518Z,21.77
2023-03-03T23:48:10.596Z,21.88
2023-03-03T23:50:38.004Z,21.02
2023-03-03T23:53:05.645Z,19.80
2023-03-03T23:55:38.778Z,21.85
2023-03-03T23:58:05.805Z,22.35
